sensor_id;sensor_type;location;lat;lon;timestamp;P1;durP1;ratioP1;P2;durP2;ratioP2
51654;SDS011;37732;53.106;7.030;2022-09-03T00:01:23;4.80;;;1.70;;
51654;SDS011;37732;53.106;7.030;2022-09-03T00:03:59;3.05;;;1.40;;
51654;SDS011;37732;53.106;7.030;2022-09-03T00:06:40;2.13;;;1.17;;
51654;SDS011;37732;53.106;7.030;2022-09-03T00:09:19;3.30;;;1.30;;
51654;SDS011;37732;53.106;7.030;2022-09-03T00:12:07;1.73;;;1.00;;
51654;SDS011;37732;53.106;7.030;2022-09-03T00:17:23;3.67;;;1.27;;
51654;SDS011;37732;53.106;7.030;2022-09-03T00:22:38;3.50;;;1.48;;
51654;SDS011;37732;53.106;7.030;2022-09-03T00:25:10;2.70;;;1.10;;
51654;SDS011;37732;53.106;7.030;2022-09-03T00:27:39;6.70;;;1.60;;
51654;SDS011;37732;53.106;7.030;2022-09-03T00:30:11;2.95;;;1.20;;
51654;SDS011;37732;53.106;7.030;2022-09-03T00:32:44;3.30;;;1.40;;
51654;SDS011;37732;53.106;7.030;2022-09-03T00:35:19;4.82;;;1.30;;
51654;SDS011;37732;53.106;7.030;2022-09-03T00:37:52;3.33;;;1.37;;
51654;SDS011;37732;53.106;7.030;2022-09-03T00:40:41;2.05;;;1.30;;
51654;SDS011;37732;53.106;7.030;2022-09-03T00:43:16;4.13;;;1.30;;
51654;SDS011;37732;53.106;7.030;2022-09-03T00:51:39;3.13;;;1.20;;
51654;SDS011;37732;53.106;7.030;2022-09-03T01:10:56;3.63;;;1.40;;
51654;SDS011;37732;53.106;7.030;2022-09-03T01:16:46;2.10;;;1.20;;
51654;SDS011;37732;53.106;7.030;2022-09-03T01:24:54;1.98;;;1.20;;
51654;SDS011;37732;53.106;7.030;2022-09-03T01:30:30;2.20;;;1.25;;
51654;SDS011;37732;53.106;7.030;2022-09-03T01:38:50;3.20;;;1.55;;
51654;SDS011;37732;53.106;7.030;2022-09-03T01:44:48;4.80;;;1.60;;
51654;SDS011;37732;53.106;7.030;2022-09-03T01:53:01;4.32;;;1.70;;
51654;SDS011;37732;53.106;7.030;2022-09-03T01:58:57;2.88;;;1.38;;
51654;SDS011;37732;53.106;7.030;2022-09-03T02:01:37;2.75;;;1.55;;
51654;SDS011;37732;53.106;7.030;2022-09-03T02:04:13;2.17;;;1.05;;
51654;SDS011;37732;53.106;7.030;2022-09-03T02:06:44;4.13;;;1.20;;
51654;SDS011;37732;53.106;7.030;2022-09-03T02:09:13;2.58;;;1.60;;
51654;SDS011;37732;53.106;7.030;2022-09-03T02:11:40;2.83;;;1.10;;
51654;SDS011;37732;53.106;7.030;2022-09-03T02:14:07;2.78;;;1.00;;
51654;SDS011;37732;53.106;7.030;2022-09-03T02:16:33;5.28;;;1.45;;
51654;SDS011;37732;53.106;7.030;2022-09-03T02:19:02;3.47;;;1.75;;
51654;SDS011;37732;53.106;7.030;2022-09-03T02:21:32;6.68;;;1.67;;
51654;SDS011;37732;53.106;7.030;2022-09-03T02:24:02;3.35;;;1.58;;
51654;SDS011;37732;53.106;7.030;2022-09-03T02:26:29;2.67;;;1.50;;
51654;SDS011;37732;53.106;7.030;2022-09-03T02:28:54;5.00;;;1.60;;
51654;SDS011;37732;53.106;7.030;2022-09-03T02:31:21;3.60;;;1.80;;
51654;SDS011;37732;53.106;7.030;2022-09-03T02:33:48;2.22;;;1.23;;
51654;SDS011;37732;53.106;7.030;2022-09-03T02:36:17;3.33;;;1.40;;
51654;SDS011;37732;53.106;7.030;2022-09-03T02:38:45;2.72;;;1.20;;
51654;SDS011;37732;53.106;7.030;2022-09-03T02:41:12;3.78;;;1.45;;
51654;SDS011;37732;53.106;7.030;2022-09-03T02:43:49;2.42;;;1.45;;
51654;SDS011;37732;53.106;7.030;2022-09-03T02:46:42;4.15;;;1.40;;
51654;SDS011;37732;53.106;7.030;2022-09-03T02:49:12;5.43;;;1.73;;
51654;SDS011;37732;53.106;7.030;2022-09-03T02:51:39;3.22;;;1.67;;
51654;SDS011;37732;53.106;7.030;2022-09-03T02:54:06;2.40;;;1.33;;
51654;SDS011;37732;53.106;7.030;2022-09-03T02:56:33;3.08;;;1.30;;
51654;SDS011;37732;53.106;7.030;2022-09-03T02:58:59;2.08;;;1.38;;
51654;SDS011;37732;53.106;7.030;2022-09-03T03:01:26;2.92;;;1.50;;
51654;SDS011;37732;53.106;7.030;2022-09-03T03:03:52;6.30;;;1.65;;
51654;SDS011;37732;53.106;7.030;2022-09-03T03:06:18;3.60;;;1.55;;
51654;SDS011;37732;53.106;7.030;2022-09-03T03:08:45;4.15;;;1.75;;
51654;SDS011;37732;53.106;7.030;2022-09-03T03:11:11;4.03;;;1.80;;
51654;SDS011;37732;53.106;7.030;2022-09-03T03:13:39;4.03;;;1.70;;
51654;SDS011;37732;53.106;7.030;2022-09-03T03:16:05;3.80;;;1.70;;
51654;SDS011;37732;53.106;7.030;2022-09-03T03:18:31;5.50;;;1.70;;
51654;SDS011;37732;53.106;7.030;2022-09-03T03:21:02;3.50;;;1.70;;
51654;SDS011;37732;53.106;7.030;2022-09-03T03:23:36;3.67;;;1.73;;
51654;SDS011;37732;53.106;7.030;2022-09-03T03:26:03;3.30;;;1.60;;
51654;SDS011;37732;53.106;7.030;2022-09-03T03:28:31;3.25;;;1.95;;
51654;SDS011;37732;53.106;7.030;2022-09-03T03:33:54;3.38;;;2.00;;
51654;SDS011;37732;53.106;7.030;2022-09-03T03:36:26;3.80;;;1.70;;
51654;SDS011;37732;53.106;7.030;2022-09-03T03:38:54;2.58;;;1.50;;
51654;SDS011;37732;53.106;7.030;2022-09-03T03:41:23;2.53;;;1.55;;
51654;SDS011;37732;53.106;7.030;2022-09-03T03:43:53;3.95;;;2.00;;
51654;SDS011;37732;53.106;7.030;2022-09-03T03:46:21;4.22;;;1.80;;
51654;SDS011;37732;53.106;7.030;2022-09-03T03:48:48;3.70;;;1.80;;
51654;SDS011;37732;53.106;7.030;2022-09-03T03:51:14;3.75;;;1.70;;
51654;SDS011;37732;53.106;7.030;2022-09-03T03:53:41;2.10;;;1.45;;
51654;SDS011;37732;53.106;7.030;2022-09-03T03:56:08;4.47;;;1.80;;
51654;SDS011;37732;53.106;7.030;2022-09-03T03:58:35;5.03;;;1.75;;
51654;SDS011;37732;53.106;7.030;2022-09-03T04:01:14;4.03;;;1.67;;
51654;SDS011;37732;53.106;7.030;2022-09-03T04:03:42;2.60;;;1.80;;
51654;SDS011;37732;53.106;7.030;2022-09-03T04:06:09;3.08;;;1.90;;
51654;SDS011;37732;53.106;7.030;2022-09-03T04:08:37;2.83;;;2.00;;
51654;SDS011;37732;53.106;7.030;2022-09-03T04:11:05;3.10;;;1.90;;
51654;SDS011;37732;53.106;7.030;2022-09-03T04:13:34;2.95;;;1.80;;
51654;SDS011;37732;53.106;7.030;2022-09-03T04:16:08;3.67;;;2.05;;
51654;SDS011;37732;53.106;7.030;2022-09-03T04:18:36;3.65;;;2.03;;
51654;SDS011;37732;53.106;7.030;2022-09-03T04:21:03;3.47;;;1.67;;
51654;SDS011;37732;53.106;7.030;2022-09-03T04:23:34;3.58;;;2.05;;
51654;SDS011;37732;53.106;7.030;2022-09-03T04:26:02;3.72;;;1.83;;
51654;SDS011;37732;53.106;7.030;2022-09-03T04:28:29;3.65;;;1.80;;
51654;SDS011;37732;53.106;7.030;2022-09-03T04:30:59;2.90;;;1.58;;
51654;SDS011;37732;53.106;7.030;2022-09-03T04:33:26;5.25;;;2.05;;
51654;SDS011;37732;53.106;7.030;2022-09-03T04:35:51;4.07;;;2.00;;
51654;SDS011;37732;53.106;7.030;2022-09-03T04:38:17;4.65;;;2.40;;
51654;SDS011;37732;53.106;7.030;2022-09-03T04:40:43;4.55;;;2.15;;
51654;SDS011;37732;53.106;7.030;2022-09-03T04:43:16;4.03;;;2.10;;
51654;SDS011;37732;53.106;7.030;2022-09-03T04:45:42;2.70;;;1.92;;
51654;SDS011;37732;53.106;7.030;2022-09-03T04:48:08;3.03;;;1.77;;
51654;SDS011;37732;53.106;7.030;2022-09-03T04:50:35;4.35;;;2.08;;
51654;SDS011;37732;53.106;7.030;2022-09-03T04:53:02;3.95;;;2.25;;
51654;SDS011;37732;53.106;7.030;2022-09-03T04:55:33;3.63;;;1.90;;
51654;SDS011;37732;53.106;7.030;2022-09-03T04:57:59;2.97;;;2.17;;
51654;SDS011;37732;53.106;7.030;2022-09-03T05:00:25;5.22;;;2.10;;
51654;SDS011;37732;53.106;7.030;2022-09-03T05:02:51;4.07;;;2.10;;
51654;SDS011;37732;53.106;7.030;2022-09-03T05:05:17;2.50;;;1.70;;
51654;SDS011;37732;53.106;7.030;2022-09-03T05:07:43;3.50;;;2.20;;
51654;SDS011;37732;53.106;7.030;2022-09-03T05:10:10;3.28;;;1.70;;
51654;SDS011;37732;53.106;7.030;2022-09-03T05:12:40;4.90;;;2.05;;
51654;SDS011;37732;53.106;7.030;2022-09-03T05:15:06;6.47;;;2.25;;
51654;SDS011;37732;53.106;7.030;2022-09-03T05:17:32;3.30;;;2.03;;
51654;SDS011;37732;53.106;7.030;2022-09-03T05:19:58;3.75;;;2.10;;
51654;SDS011;37732;53.106;7.030;2022-09-03T05:22:23;4.70;;;2.60;;
51654;SDS011;37732;53.106;7.030;2022-09-03T05:24:49;6.45;;;2.28;;
51654;SDS011;37732;53.106;7.030;2022-09-03T05:27:15;5.78;;;2.20;;
51654;SDS011;37732;53.106;7.030;2022-09-03T05:29:42;4.40;;;1.92;;
51654;SDS011;37732;53.106;7.030;2022-09-03T05:32:08;5.72;;;2.35;;
51654;SDS011;37732;53.106;7.030;2022-09-03T05:34:34;4.13;;;2.20;;
51654;SDS011;37732;53.106;7.030;2022-09-03T05:37:00;3.13;;;2.13;;
51654;SDS011;37732;53.106;7.030;2022-09-03T05:39:25;3.65;;;2.30;;
51654;SDS011;37732;53.106;7.030;2022-09-03T05:41:52;4.07;;;2.20;;
51654;SDS011;37732;53.106;7.030;2022-09-03T05:44:18;7.80;;;2.50;;
51654;SDS011;37732;53.106;7.030;2022-09-03T05:46:47;3.67;;;2.28;;
51654;SDS011;37732;53.106;7.030;2022-09-03T05:49:16;4.10;;;2.33;;
51654;SDS011;37732;53.106;7.030;2022-09-03T05:51:41;4.57;;;2.17;;
51654;SDS011;37732;53.106;7.030;2022-09-03T05:54:08;5.53;;;2.35;;
51654;SDS011;37732;53.106;7.030;2022-09-03T05:56:35;3.75;;;2.20;;
51654;SDS011;37732;53.106;7.030;2022-09-03T05:59:04;3.67;;;2.40;;
51654;SDS011;37732;53.106;7.030;2022-09-03T06:04:00;5.13;;;2.20;;
51654;SDS011;37732;53.106;7.030;2022-09-03T06:06:29;3.95;;;2.00;;
51654;SDS011;37732;53.106;7.030;2022-09-03T06:08:57;4.10;;;2.30;;
51654;SDS011;37732;53.106;7.030;2022-09-03T06:11:25;5.68;;;2.40;;
51654;SDS011;37732;53.106;7.030;2022-09-03T06:13:53;3.13;;;2.05;;
51654;SDS011;37732;53.106;7.030;2022-09-03T06:16:25;4.65;;;2.05;;
51654;SDS011;37732;53.106;7.030;2022-09-03T06:18:52;3.42;;;2.10;;
51654;SDS011;37732;53.106;7.030;2022-09-03T06:21:18;4.18;;;2.20;;
51654;SDS011;37732;53.106;7.030;2022-09-03T06:23:48;6.35;;;2.53;;
51654;SDS011;37732;53.106;7.030;2022-09-03T06:26:15;3.47;;;2.00;;
51654;SDS011;37732;53.106;7.030;2022-09-03T06:28:42;3.47;;;1.83;;
51654;SDS011;37732;53.106;7.030;2022-09-03T06:31:09;3.15;;;1.60;;
51654;SDS011;37732;53.106;7.030;2022-09-03T06:33:37;3.83;;;2.38;;
51654;SDS011;37732;53.106;7.030;2022-09-03T06:36:06;4.53;;;2.10;;
51654;SDS011;37732;53.106;7.030;2022-09-03T06:38:33;5.85;;;1.90;;
51654;SDS011;37732;53.106;7.030;2022-09-03T06:41:02;3.00;;;2.10;;
51654;SDS011;37732;53.106;7.030;2022-09-03T06:43:30;5.88;;;2.35;;
51654;SDS011;37732;53.106;7.030;2022-09-03T06:46:01;4.05;;;2.38;;
51654;SDS011;37732;53.106;7.030;2022-09-03T06:48:30;3.55;;;1.90;;
51654;SDS011;37732;53.106;7.030;2022-09-03T06:51:04;4.47;;;1.98;;
51654;SDS011;37732;53.106;7.030;2022-09-03T06:53:33;2.88;;;2.00;;
51654;SDS011;37732;53.106;7.030;2022-09-03T06:56:03;2.90;;;1.70;;
51654;SDS011;37732;53.106;7.030;2022-09-03T06:58:32;4.25;;;1.77;;
51654;SDS011;37732;53.106;7.030;2022-09-03T07:01:06;5.22;;;1.95;;
51654;SDS011;37732;53.106;7.030;2022-09-03T07:03:34;3.17;;;1.90;;
51654;SDS011;37732;53.106;7.030;2022-09-03T07:06:05;5.97;;;1.95;;
51654;SDS011;37732;53.106;7.030;2022-09-03T07:08:32;3.15;;;1.90;;
51654;SDS011;37732;53.106;7.030;2022-09-03T07:10:59;4.40;;;1.98;;
51654;SDS011;37732;53.106;7.030;2022-09-03T07:13:33;3.50;;;1.90;;
51654;SDS011;37732;53.106;7.030;2022-09-03T07:16:13;3.30;;;1.90;;
51654;SDS011;37732;53.106;7.030;2022-09-03T07:18:43;4.10;;;1.75;;
51654;SDS011;37732;53.106;7.030;2022-09-03T07:21:20;4.65;;;1.73;;
51654;SDS011;37732;53.106;7.030;2022-09-03T07:23:48;3.00;;;1.75;;
51654;SDS011;37732;53.106;7.030;2022-09-03T07:26:19;3.65;;;1.80;;
51654;SDS011;37732;53.106;7.030;2022-09-03T07:28:50;3.70;;;2.00;;
51654;SDS011;37732;53.106;7.030;2022-09-03T07:31:19;6.10;;;1.90;;
51654;SDS011;37732;53.106;7.030;2022-09-03T07:33:49;4.20;;;1.98;;
51654;SDS011;37732;53.106;7.030;2022-09-03T07:36:19;8.70;;;2.03;;
51654;SDS011;37732;53.106;7.030;2022-09-03T07:38:47;4.53;;;2.45;;
51654;SDS011;37732;53.106;7.030;2022-09-03T07:41:13;3.53;;;2.30;;
51654;SDS011;37732;53.106;7.030;2022-09-03T07:43:40;5.60;;;2.17;;
51654;SDS011;37732;53.106;7.030;2022-09-03T07:46:11;3.30;;;1.80;;
51654;SDS011;37732;53.106;7.030;2022-09-03T07:48:47;6.00;;;1.80;;
51654;SDS011;37732;53.106;7.030;2022-09-03T07:51:24;5.60;;;2.33;;
51654;SDS011;37732;53.106;7.030;2022-09-03T07:53:55;4.90;;;1.75;;
51654;SDS011;37732;53.106;7.030;2022-09-03T07:56:23;2.58;;;1.80;;
51654;SDS011;37732;53.106;7.030;2022-09-03T07:58:55;5.28;;;2.08;;
51654;SDS011;37732;53.106;7.030;2022-09-03T08:01:22;4.57;;;1.80;;
51654;SDS011;37732;53.106;7.030;2022-09-03T08:03:50;6.03;;;1.70;;
51654;SDS011;37732;53.106;7.030;2022-09-03T08:06:19;2.90;;;1.70;;
51654;SDS011;37732;53.106;7.030;2022-09-03T08:08:53;6.38;;;2.45;;
51654;SDS011;37732;53.106;7.030;2022-09-03T08:11:26;3.70;;;1.50;;
51654;SDS011;37732;53.106;7.030;2022-09-03T08:14:00;3.28;;;1.90;;
51654;SDS011;37732;53.106;7.030;2022-09-03T08:16:28;4.50;;;1.83;;
51654;SDS011;37732;53.106;7.030;2022-09-03T08:18:56;4.95;;;1.80;;
51654;SDS011;37732;53.106;7.030;2022-09-03T08:21:23;5.93;;;1.98;;
51654;SDS011;37732;53.106;7.030;2022-09-03T08:23:51;4.35;;;2.08;;
51654;SDS011;37732;53.106;7.030;2022-09-03T08:26:19;5.15;;;1.50;;
51654;SDS011;37732;53.106;7.030;2022-09-03T08:28:46;3.95;;;1.65;;
51654;SDS011;37732;53.106;7.030;2022-09-03T08:31:22;3.22;;;1.67;;
51654;SDS011;37732;53.106;7.030;2022-09-03T08:33:52;3.95;;;1.85;;
51654;SDS011;37732;53.106;7.030;2022-09-03T08:36:21;2.75;;;1.50;;
51654;SDS011;37732;53.106;7.030;2022-09-03T08:38:49;5.70;;;2.00;;
51654;SDS011;37732;53.106;7.030;2022-09-03T09:00:26;8.82;;;1.92;;
51654;SDS011;37732;53.106;7.030;2022-09-03T09:06:11;6.03;;;1.60;;
51654;SDS011;37732;53.106;7.030;2022-09-03T09:14:37;5.78;;;1.77;;
51654;SDS011;37732;53.106;7.030;2022-09-03T09:23:00;4.88;;;1.70;;
51654;SDS011;37732;53.106;7.030;2022-09-03T09:25:30;6.45;;;1.83;;
51654;SDS011;37732;53.106;7.030;2022-09-03T09:28:01;5.65;;;1.75;;
51654;SDS011;37732;53.106;7.030;2022-09-03T09:30:48;4.35;;;1.50;;
51654;SDS011;37732;53.106;7.030;2022-09-03T09:33:16;3.58;;;1.33;;
51654;SDS011;37732;53.106;7.030;2022-09-03T09:35:43;5.78;;;2.08;;
51654;SDS011;37732;53.106;7.030;2022-09-03T09:38:13;5.82;;;1.98;;
51654;SDS011;37732;53.106;7.030;2022-09-03T09:41:06;4.28;;;1.40;;
51654;SDS011;37732;53.106;7.030;2022-09-03T09:43:40;5.05;;;1.90;;
51654;SDS011;37732;53.106;7.030;2022-09-03T09:46:11;4.55;;;1.40;;
51654;SDS011;37732;53.106;7.030;2022-09-03T09:48:38;3.85;;;2.00;;
51654;SDS011;37732;53.106;7.030;2022-09-03T09:51:20;3.78;;;1.48;;
51654;SDS011;37732;53.106;7.030;2022-09-03T09:53:48;5.75;;;1.40;;
51654;SDS011;37732;53.106;7.030;2022-09-03T09:56:57;2.97;;;1.48;;
51654;SDS011;37732;53.106;7.030;2022-09-03T09:59:27;3.97;;;1.45;;
51654;SDS011;37732;53.106;7.030;2022-09-03T10:02:06;3.90;;;1.55;;
51654;SDS011;37732;53.106;7.030;2022-09-03T10:04:38;5.65;;;1.50;;
51654;SDS011;37732;53.106;7.030;2022-09-03T10:07:24;2.83;;;1.50;;
51654;SDS011;37732;53.106;7.030;2022-09-03T10:26:45;6.13;;;1.70;;
51654;SDS011;37732;53.106;7.030;2022-09-03T10:29:11;3.72;;;1.42;;
51654;SDS011;37732;53.106;7.030;2022-09-03T10:37:18;4.43;;;1.50;;
51654;SDS011;37732;53.106;7.030;2022-09-03T10:43:43;2.15;;;1.50;;
51654;SDS011;37732;53.106;7.030;2022-09-03T10:46:21;2.85;;;1.30;;
51654;SDS011;37732;53.106;7.030;2022-09-03T10:55:18;4.97;;;1.80;;
51654;SDS011;37732;53.106;7.030;2022-09-03T11:04:42;3.72;;;1.70;;
51654;SDS011;37732;53.106;7.030;2022-09-03T11:07:57;5.15;;;1.60;;
51654;SDS011;37732;53.106;7.030;2022-09-03T11:11:21;5.40;;;1.60;;
51654;SDS011;37732;53.106;7.030;2022-09-03T11:14:09;3.30;;;1.58;;
51654;SDS011;37732;53.106;7.030;2022-09-03T11:19:58;4.32;;;1.65;;
51654;SDS011;37732;53.106;7.030;2022-09-03T11:22:38;7.32;;;1.85;;
51654;SDS011;37732;53.106;7.030;2022-09-03T11:25:34;2.60;;;1.40;;
51654;SDS011;37732;53.106;7.030;2022-09-03T11:30:48;5.28;;;1.42;;
51654;SDS011;37732;53.106;7.030;2022-09-03T11:33:31;6.32;;;1.73;;
51654;SDS011;37732;53.106;7.030;2022-09-03T11:36:09;4.70;;;1.58;;
51654;SDS011;37732;53.106;7.030;2022-09-03T11:38:35;3.60;;;2.25;;
51654;SDS011;37732;53.106;7.030;2022-09-03T11:41:13;3.58;;;1.45;;
51654;SDS011;37732;53.106;7.030;2022-09-03T11:45:10;6.22;;;1.38;;
51654;SDS011;37732;53.106;7.030;2022-09-03T11:47:14;8.93;;;1.80;;
51654;SDS011;37732;53.106;7.030;2022-09-03T11:50:04;3.08;;;1.50;;
51654;SDS011;37732;53.106;7.030;2022-09-03T11:55:50;3.22;;;1.30;;
51654;SDS011;37732;53.106;7.030;2022-09-03T12:04:47;7.18;;;1.63;;
51654;SDS011;37732;53.106;7.030;2022-09-03T12:17:40;2.50;;;1.40;;
51654;SDS011;37732;53.106;7.030;2022-09-03T12:20:44;2.20;;;1.30;;
51654;SDS011;37732;53.106;7.030;2022-09-03T12:23:27;3.13;;;1.50;;
51654;SDS011;37732;53.106;7.030;2022-09-03T12:26:22;3.10;;;1.60;;
51654;SDS011;37732;53.106;7.030;2022-09-03T12:29:23;3.00;;;1.52;;
51654;SDS011;37732;53.106;7.030;2022-09-03T12:31:50;1.92;;;1.33;;
51654;SDS011;37732;53.106;7.030;2022-09-03T12:34:36;4.68;;;1.58;;
51654;SDS011;37732;53.106;7.030;2022-09-03T12:37:01;3.03;;;1.63;;
51654;SDS011;37732;53.106;7.030;2022-09-03T12:39:34;2.28;;;1.38;;
51654;SDS011;37732;53.106;7.030;2022-09-03T12:44:39;3.80;;;1.58;;
51654;SDS011;37732;53.106;7.030;2022-09-03T12:47:16;2.33;;;1.20;;
51654;SDS011;37732;53.106;7.030;2022-09-03T12:49:56;5.07;;;1.75;;
51654;SDS011;37732;53.106;7.030;2022-09-03T12:57:50;3.00;;;1.52;;
51654;SDS011;37732;53.106;7.030;2022-09-03T13:00:54;2.40;;;1.40;;
51654;SDS011;37732;53.106;7.030;2022-09-03T13:09:36;3.65;;;1.30;;
51654;SDS011;37732;53.106;7.030;2022-09-03T13:15:16;3.17;;;1.45;;
51654;SDS011;37732;53.106;7.030;2022-09-03T13:32:43;1.83;;;1.50;;
51654;SDS011;37732;53.106;7.030;2022-09-03T13:35:29;3.58;;;1.40;;
51654;SDS011;37732;53.106;7.030;2022-09-03T13:47:06;5.70;;;2.05;;
51654;SDS011;37732;53.106;7.030;2022-09-03T13:52:57;3.92;;;1.42;;
51654;SDS011;37732;53.106;7.030;2022-09-03T14:02:30;5.07;;;1.50;;
51654;SDS011;37732;53.106;7.030;2022-09-03T14:16:23;3.97;;;1.45;;
51654;SDS011;37732;53.106;7.030;2022-09-03T14:19:51;3.92;;;1.90;;
51654;SDS011;37732;53.106;7.030;2022-09-03T14:25:52;5.13;;;1.58;;
51654;SDS011;37732;53.106;7.030;2022-09-03T14:51:47;3.92;;;1.95;;
51654;SDS011;37732;53.106;7.030;2022-09-03T14:54:39;5.03;;;1.42;;
51654;SDS011;37732;53.106;7.030;2022-09-03T15:01:05;2.33;;;1.70;;
51654;SDS011;37732;53.106;7.030;2022-09-03T15:14:55;5.20;;;1.60;;
51654;SDS011;37732;53.106;7.030;2022-09-03T15:20:57;3.33;;;1.60;;
51654;SDS011;37732;53.106;7.030;2022-09-03T15:32:27;5.05;;;1.70;;
51654;SDS011;37732;53.106;7.030;2022-09-03T15:38:02;3.78;;;1.50;;
51654;SDS011;37732;53.106;7.030;2022-09-03T15:40:36;5.95;;;1.48;;
51654;SDS011;37732;53.106;7.030;2022-09-03T15:43:29;3.92;;;1.67;;
51654;SDS011;37732;53.106;7.030;2022-09-03T15:46:01;2.83;;;1.80;;
51654;SDS011;37732;53.106;7.030;2022-09-03T15:48:55;2.80;;;1.50;;
51654;SDS011;37732;53.106;7.030;2022-09-03T15:57:27;4.22;;;1.80;;
51654;SDS011;37732;53.106;7.030;2022-09-03T16:00:08;6.05;;;1.90;;
51654;SDS011;37732;53.106;7.030;2022-09-03T16:03:33;4.13;;;1.60;;
51654;SDS011;37732;53.106;7.030;2022-09-03T16:09:55;4.13;;;1.50;;
51654;SDS011;37732;53.106;7.030;2022-09-03T16:15:50;3.53;;;1.30;;
51654;SDS011;37732;53.106;7.030;2022-09-03T16:25:13;3.53;;;1.70;;
51654;SDS011;37732;53.106;7.030;2022-09-03T16:28:08;2.92;;;1.35;;
51654;SDS011;37732;53.106;7.030;2022-09-03T16:46:07;7.15;;;1.63;;
51654;SDS011;37732;53.106;7.030;2022-09-03T16:49:23;9.00;;;1.83;;
51654;SDS011;37732;53.106;7.030;2022-09-03T16:52:00;7.03;;;1.90;;
51654;SDS011;37732;53.106;7.030;2022-09-03T16:57:40;6.03;;;1.88;;
51654;SDS011;37732;53.106;7.030;2022-09-03T17:11:47;2.78;;;1.52;;
51654;SDS011;37732;53.106;7.030;2022-09-03T17:25:18;3.72;;;1.65;;
51654;SDS011;37732;53.106;7.030;2022-09-03T17:28:27;4.63;;;1.60;;
51654;SDS011;37732;53.106;7.030;2022-09-03T17:36:54;5.32;;;2.00;;
51654;SDS011;37732;53.106;7.030;2022-09-03T17:39:53;5.25;;;1.80;;
51654;SDS011;37732;53.106;7.030;2022-09-03T17:48:24;1.63;;;1.40;;
51654;SDS011;37732;53.106;7.030;2022-09-03T17:51:24;3.40;;;1.53;;
51654;SDS011;37732;53.106;7.030;2022-09-03T17:59:44;3.53;;;1.60;;
51654;SDS011;37732;53.106;7.030;2022-09-03T18:05:33;4.57;;;1.65;;
51654;SDS011;37732;53.106;7.030;2022-09-03T18:08:14;5.50;;;2.00;;
51654;SDS011;37732;53.106;7.030;2022-09-03T18:13:57;5.38;;;1.88;;
51654;SDS011;37732;53.106;7.030;2022-09-03T18:16:58;3.88;;;1.83;;
51654;SDS011;37732;53.106;7.030;2022-09-03T18:22:39;4.32;;;1.88;;
51654;SDS011;37732;53.106;7.030;2022-09-03T18:25:49;5.75;;;1.50;;
51654;SDS011;37732;53.106;7.030;2022-09-03T18:28:47;6.28;;;1.65;;
51654;SDS011;37732;53.106;7.030;2022-09-03T18:31:42;2.78;;;1.30;;
51654;SDS011;37732;53.106;7.030;2022-09-03T18:34:31;3.05;;;1.40;;
51654;SDS011;37732;53.106;7.030;2022-09-03T18:37:24;2.85;;;1.60;;
51654;SDS011;37732;53.106;7.030;2022-09-03T18:40:13;2.83;;;1.67;;
51654;SDS011;37732;53.106;7.030;2022-09-03T18:43:13;5.75;;;1.73;;
51654;SDS011;37732;53.106;7.030;2022-09-03T18:49:16;2.85;;;1.80;;
51654;SDS011;37732;53.106;7.030;2022-09-03T18:52:25;2.88;;;1.60;;
51654;SDS011;37732;53.106;7.030;2022-09-03T19:01:49;5.28;;;1.60;;
51654;SDS011;37732;53.106;7.030;2022-09-03T19:07:54;4.55;;;1.90;;
51654;SDS011;37732;53.106;7.030;2022-09-03T19:11:06;3.97;;;1.90;;
51654;SDS011;37732;53.106;7.030;2022-09-03T19:14:14;6.32;;;1.70;;
51654;SDS011;37732;53.106;7.030;2022-09-03T19:20:29;4.90;;;1.70;;
51654;SDS011;37732;53.106;7.030;2022-09-03T19:23:15;3.75;;;1.55;;
51654;SDS011;37732;53.106;7.030;2022-09-03T19:26:20;4.38;;;1.73;;
51654;SDS011;37732;53.106;7.030;2022-09-03T19:29:33;5.35;;;2.10;;
51654;SDS011;37732;53.106;7.030;2022-09-03T19:36:27;4.57;;;1.80;;
51654;SDS011;37732;53.106;7.030;2022-09-03T19:42:06;3.03;;;1.63;;
51654;SDS011;37732;53.106;7.030;2022-09-03T19:45:11;7.95;;;1.80;;
51654;SDS011;37732;53.106;7.030;2022-09-03T19:51:25;6.13;;;1.85;;
51654;SDS011;37732;53.106;7.030;2022-09-03T19:54:18;5.82;;;2.10;;
51654;SDS011;37732;53.106;7.030;2022-09-03T19:57:05;2.92;;;2.00;;
51654;SDS011;37732;53.106;7.030;2022-09-03T19:59:51;3.22;;;1.50;;
51654;SDS011;37732;53.106;7.030;2022-09-03T20:02:36;5.72;;;1.65;;
51654;SDS011;37732;53.106;7.030;2022-09-03T20:05:22;4.32;;;1.63;;
51654;SDS011;37732;53.106;7.030;2022-09-03T20:08:06;3.08;;;1.90;;
51654;SDS011;37732;53.106;7.030;2022-09-03T20:10:52;4.75;;;2.10;;
51654;SDS011;37732;53.106;7.030;2022-09-03T20:13:21;4.75;;;2.00;;
51654;SDS011;37732;53.106;7.030;2022-09-03T20:16:06;3.30;;;2.03;;
51654;SDS011;37732;53.106;7.030;2022-09-03T20:18:49;3.40;;;2.00;;
51654;SDS011;37732;53.106;7.030;2022-09-03T20:21:34;4.65;;;2.10;;
51654;SDS011;37732;53.106;7.030;2022-09-03T20:34:57;4.63;;;1.90;;
51654;SDS011;37732;53.106;7.030;2022-09-03T20:37:43;2.42;;;1.60;;
51654;SDS011;37732;53.106;7.030;2022-09-03T20:40:28;3.15;;;1.73;;
51654;SDS011;37732;53.106;7.030;2022-09-03T20:51:40;3.40;;;1.73;;
51654;SDS011;37732;53.106;7.030;2022-09-03T20:54:12;5.00;;;2.00;;
51654;SDS011;37732;53.106;7.030;2022-09-03T21:10:46;5.68;;;2.42;;
51654;SDS011;37732;53.106;7.030;2022-09-03T21:21:21;5.68;;;1.77;;
51654;SDS011;37732;53.106;7.030;2022-09-03T21:26:44;3.83;;;1.83;;
51654;SDS011;37732;53.106;7.030;2022-09-03T21:29:27;3.90;;;1.70;;
51654;SDS011;37732;53.106;7.030;2022-09-03T21:34:36;3.90;;;2.00;;
51654;SDS011;37732;53.106;7.030;2022-09-03T21:37:09;4.80;;;1.90;;
51654;SDS011;37732;53.106;7.030;2022-09-03T21:42:10;3.50;;;2.10;;
51654;SDS011;37732;53.106;7.030;2022-09-03T21:44:50;3.70;;;1.95;;
51654;SDS011;37732;53.106;7.030;2022-09-03T21:47:23;5.07;;;1.88;;
51654;SDS011;37732;53.106;7.030;2022-09-03T21:55:53;4.63;;;1.80;;
51654;SDS011;37732;53.106;7.030;2022-09-03T22:01:17;4.32;;;1.83;;
51654;SDS011;37732;53.106;7.030;2022-09-03T22:03:50;5.65;;;1.90;;
51654;SDS011;37732;53.106;7.030;2022-09-03T22:06:21;4.15;;;2.10;;
51654;SDS011;37732;53.106;7.030;2022-09-03T22:09:00;4.55;;;2.10;;
51654;SDS011;37732;53.106;7.030;2022-09-03T22:16:42;2.92;;;1.83;;
51654;SDS011;37732;53.106;7.030;2022-09-03T22:19:16;5.38;;;2.28;;
51654;SDS011;37732;53.106;7.030;2022-09-03T22:22:03;6.22;;;1.85;;
51654;SDS011;37732;53.106;7.030;2022-09-03T22:30:05;3.67;;;2.20;;
51654;SDS011;37732;53.106;7.030;2022-09-03T22:35:47;3.95;;;2.13;;
51654;SDS011;37732;53.106;7.030;2022-09-03T22:49:57;4.50;;;1.80;;
51654;SDS011;37732;53.106;7.030;2022-09-03T22:52:29;3.97;;;2.28;;
51654;SDS011;37732;53.106;7.030;2022-09-03T22:55:16;6.93;;;2.22;;
51654;SDS011;37732;53.106;7.030;2022-09-03T23:00:19;3.47;;;1.75;;
51654;SDS011;37732;53.106;7.030;2022-09-03T23:02:50;9.30;;;2.40;;
51654;SDS011;37732;53.106;7.030;2022-09-03T23:08:14;5.35;;;1.95;;
51654;SDS011;37732;53.106;7.030;2022-09-03T23:11:00;3.65;;;1.60;;
51654;SDS011;37732;53.106;7.030;2022-09-03T23:16:13;3.60;;;1.80;;
51654;SDS011;37732;53.106;7.030;2022-09-03T23:18:47;5.65;;;1.95;;
51654;SDS011;37732;53.106;7.030;2022-09-03T23:24:02;11.23;;;2.58;;
51654;SDS011;37732;53.106;7.030;2022-09-03T23:26:38;2.50;;;1.90;;
51654;SDS011;37732;53.106;7.030;2022-09-03T23:31:48;7.32;;;1.90;;
51654;SDS011;37732;53.106;7.030;2022-09-03T23:34:15;4.70;;;2.10;;
51654;SDS011;37732;53.106;7.030;2022-09-03T23:47:59;4.97;;;2.15;;
51654;SDS011;37732;53.106;7.030;2022-09-03T23:53:54;5.10;;;2.10;;
